sensor_id;sensor_type;location;lat;lon;timestamp;P1;durP1;ratioP1;P2;durP2;ratioP2
38037;SDS011;23843;51.320;12.340;2023-03-30T04:32:39;0.40;;;0.30;;
38037;SDS011;23843;51.320;12.340;2023-03-30T04:35:05;0.20;;;0.20;;
38037;SDS011;23843;51.320;12.340;2023-03-30T04:37:31;0.30;;;0.30;;
38037;SDS011;23843;51.320;12.340;2023-03-30T04:39:57;0.30;;;0.30;;
38037;SDS011;23843;51.320;12.340;2023-03-30T04:42:23;0.20;;;0.20;;
38037;SDS011;23843;51.320;12.340;2023-03-30T04:44:48;0.20;;;0.20;;
38037;SDS011;23843;51.320;12.340;2023-03-30T04:47:14;0.30;;;0.30;;
38037;SDS011;23843;51.320;12.340;2023-03-30T04:49:40;0.10;;;0.10;;
38037;SDS011;23843;51.320;12.340;2023-03-30T04:52:06;0.20;;;0.20;;
38037;SDS011;23843;51.320;12.340;2023-03-30T04:54:31;0.33;;;0.23;;
38037;SDS011;23843;51.320;12.340;2023-03-30T04:56:57;0.30;;;0.30;;
38037;SDS011;23843;51.320;12.340;2023-03-30T04:59:22;0.20;;;0.20;;
38037;SDS011;23843;51.320;12.340;2023-03-30T05:01:48;0.30;;;0.20;;
38037;SDS011;23843;51.320;12.340;2023-03-30T05:04:13;0.30;;;0.30;;
38037;SDS011;23843;51.320;12.340;2023-03-30T05:06:40;0.30;;;0.30;;
38037;SDS011;23843;51.320;12.340;2023-03-30T05:09:05;0.40;;;0.40;;
38037;SDS011;23843;51.320;12.340;2023-03-30T05:11:31;1.00;;;0.60;;
38037;SDS011;23843;51.320;12.340;2023-03-30T05:13:56;0.47;;;0.47;;
38037;SDS011;23843;51.320;12.340;2023-03-30T05:16:22;0.47;;;0.40;;
38037;SDS011;23843;51.320;12.340;2023-03-30T05:18:47;0.47;;;0.43;;
38037;SDS011;23843;51.320;12.340;2023-03-30T05:21:13;0.80;;;0.43;;
38037;SDS011;23843;51.320;12.340;2023-03-30T05:23:40;0.63;;;0.50;;
38037;SDS011;23843;51.320;12.340;2023-03-30T05:26:05;0.50;;;0.43;;
38037;SDS011;23843;51.320;12.340;2023-03-30T05:28:31;0.40;;;0.40;;
38037;SDS011;23843;51.320;12.340;2023-03-30T05:30:56;0.27;;;0.27;;
38037;SDS011;23843;51.320;12.340;2023-03-30T05:33:22;0.30;;;0.30;;
38037;SDS011;23843;51.320;12.340;2023-03-30T05:35:47;0.30;;;0.30;;
38037;SDS011;23843;51.320;12.340;2023-03-30T05:38:13;0.40;;;0.40;;
38037;SDS011;23843;51.320;12.340;2023-03-30T05:40:40;0.27;;;0.20;;
38037;SDS011;23843;51.320;12.340;2023-03-30T05:43:05;0.40;;;0.40;;
38037;SDS011;23843;51.320;12.340;2023-03-30T05:45:31;0.50;;;0.30;;
38037;SDS011;23843;51.320;12.340;2023-03-30T05:47:56;0.80;;;0.80;;
38037;SDS011;23843;51.320;12.340;2023-03-30T05:50:22;0.33;;;0.33;;
38037;SDS011;23843;51.320;12.340;2023-03-30T05:52:47;0.30;;;0.30;;
38037;SDS011;23843;51.320;12.340;2023-03-30T05:55:13;0.40;;;0.40;;
38037;SDS011;23843;51.320;12.340;2023-03-30T05:57:40;0.43;;;0.40;;
38037;SDS011;23843;51.320;12.340;2023-03-30T06:00:06;0.40;;;0.40;;
38037;SDS011;23843;51.320;12.340;2023-03-30T06:02:32;0.90;;;0.40;;
38037;SDS011;23843;51.320;12.340;2023-03-30T06:04:58;0.87;;;0.60;;
38037;SDS011;23843;51.320;12.340;2023-03-30T06:07:23;1.50;;;0.70;;
38037;SDS011;23843;51.320;12.340;2023-03-30T06:09:49;0.80;;;0.70;;
38037;SDS011;23843;51.320;12.340;2023-03-30T06:12:14;1.90;;;0.60;;
38037;SDS011;23843;51.320;12.340;2023-03-30T06:14:41;1.10;;;1.00;;
38037;SDS011;23843;51.320;12.340;2023-03-30T06:17:07;0.60;;;0.50;;
38037;SDS011;23843;51.320;12.340;2023-03-30T06:19:32;0.63;;;0.50;;
38037;SDS011;23843;51.320;12.340;2023-03-30T06:21:58;1.30;;;0.60;;
38037;SDS011;23843;51.320;12.340;2023-03-30T06:24:23;0.97;;;0.60;;
38037;SDS011;23843;51.320;12.340;2023-03-30T06:26:48;0.47;;;0.47;;
38037;SDS011;23843;51.320;12.340;2023-03-30T06:29:14;0.60;;;0.60;;
38037;SDS011;23843;51.320;12.340;2023-03-30T06:31:41;0.50;;;0.50;;
38037;SDS011;23843;51.320;12.340;2023-03-30T06:34:06;0.70;;;0.60;;
38037;SDS011;23843;51.320;12.340;2023-03-30T06:36:32;0.70;;;0.60;;
38037;SDS011;23843;51.320;12.340;2023-03-30T06:38:57;0.53;;;0.53;;
38037;SDS011;23843;51.320;12.340;2023-03-30T06:41:22;0.47;;;0.40;;
38037;SDS011;23843;51.320;12.340;2023-03-30T06:43:48;0.83;;;0.60;;
38037;SDS011;23843;51.320;12.340;2023-03-30T06:46:13;2.17;;;0.60;;
38037;SDS011;23843;51.320;12.340;2023-03-30T06:48:40;1.17;;;0.70;;
38037;SDS011;23843;51.320;12.340;2023-03-30T06:51:06;0.90;;;0.70;;
38037;SDS011;23843;51.320;12.340;2023-03-30T06:53:31;1.20;;;1.10;;
38037;SDS011;23843;51.320;12.340;2023-03-30T06:55:57;0.83;;;0.73;;
38037;SDS011;23843;51.320;12.340;2023-03-30T06:58:24;0.75;;;0.70;;
38037;SDS011;23843;51.320;12.340;2023-03-30T07:00:49;0.95;;;0.70;;
38037;SDS011;23843;51.320;12.340;2023-03-30T07:03:15;1.10;;;0.60;;
38037;SDS011;23843;51.320;12.340;2023-03-30T07:05:42;1.08;;;0.80;;
38037;SDS011;23843;51.320;12.340;2023-03-30T07:08:08;2.45;;;1.13;;
38037;SDS011;23843;51.320;12.340;2023-03-30T07:10:33;0.88;;;0.70;;
38037;SDS011;23843;51.320;12.340;2023-03-30T07:12:59;1.38;;;0.93;;
38037;SDS011;23843;51.320;12.340;2023-03-30T07:15:24;2.50;;;1.30;;
38037;SDS011;23843;51.320;12.340;2023-03-30T07:17:50;2.17;;;0.90;;
38037;SDS011;23843;51.320;12.340;2023-03-30T07:20:15;1.63;;;1.10;;
38037;SDS011;23843;51.320;12.340;2023-03-30T07:22:42;2.15;;;1.20;;
38037;SDS011;23843;51.320;12.340;2023-03-30T07:25:08;2.83;;;1.30;;
38037;SDS011;23843;51.320;12.340;2023-03-30T07:27:34;2.72;;;1.55;;
38037;SDS011;23843;51.320;12.340;2023-03-30T07:29:59;2.40;;;1.45;;
38037;SDS011;23843;51.320;12.340;2023-03-30T07:32:25;2.33;;;1.27;;
38037;SDS011;23843;51.320;12.340;2023-03-30T07:34:50;2.22;;;1.20;;
38037;SDS011;23843;51.320;12.340;2023-03-30T07:37:15;1.80;;;1.10;;
38037;SDS011;23843;51.320;12.340;2023-03-30T07:39:42;1.95;;;1.58;;
38037;SDS011;23843;51.320;12.340;2023-03-30T07:42:08;2.22;;;1.38;;
38037;SDS011;23843;51.320;12.340;2023-03-30T07:44:33;2.13;;;1.30;;
38037;SDS011;23843;51.320;12.340;2023-03-30T07:46:59;2.38;;;1.27;;
38037;SDS011;23843;51.320;12.340;2023-03-30T07:49:24;2.50;;;1.70;;
38037;SDS011;23843;51.320;12.340;2023-03-30T07:51:50;2.00;;;1.42;;
38037;SDS011;23843;51.320;12.340;2023-03-30T07:54:17;2.53;;;1.70;;
38037;SDS011;23843;51.320;12.340;2023-03-30T07:56:44;5.82;;;2.13;;
38037;SDS011;23843;51.320;12.340;2023-03-30T07:59:09;4.55;;;2.10;;
38037;SDS011;23843;51.320;12.340;2023-03-30T08:01:35;3.13;;;1.80;;
38037;SDS011;23843;51.320;12.340;2023-03-30T08:04:01;2.95;;;1.58;;
38037;SDS011;23843;51.320;12.340;2023-03-30T08:06:27;2.72;;;1.50;;
38037;SDS011;23843;51.320;12.340;2023-03-30T08:08:53;2.85;;;1.45;;
38037;SDS011;23843;51.320;12.340;2023-03-30T08:11:18;1.17;;;1.00;;
38037;SDS011;23843;51.320;12.340;2023-03-30T08:13:45;2.45;;;1.80;;
38037;SDS011;23843;51.320;12.340;2023-03-30T08:16:11;1.80;;;1.10;;
38037;SDS011;23843;51.320;12.340;2023-03-30T08:18:36;2.97;;;1.48;;
38037;SDS011;23843;51.320;12.340;2023-03-30T08:21:02;2.92;;;1.23;;
38037;SDS011;23843;51.320;12.340;2023-03-30T08:23:28;2.60;;;1.60;;
38037;SDS011;23843;51.320;12.340;2023-03-30T08:25:55;3.60;;;1.60;;
38037;SDS011;23843;51.320;12.340;2023-03-30T08:28:20;1.93;;;1.20;;
38037;SDS011;23843;51.320;12.340;2023-03-30T08:30:47;3.00;;;1.30;;
38037;SDS011;23843;51.320;12.340;2023-03-30T08:33:13;2.80;;;1.50;;
38037;SDS011;23843;51.320;12.340;2023-03-30T08:35:39;4.30;;;1.80;;
38037;SDS011;23843;51.320;12.340;2023-03-30T08:38:04;2.33;;;1.27;;
38037;SDS011;23843;51.320;12.340;2023-03-30T08:40:30;6.33;;;1.73;;
38037;SDS011;23843;51.320;12.340;2023-03-30T08:43:18;5.57;;;1.70;;
38037;SDS011;23843;51.320;12.340;2023-03-30T08:45:58;2.53;;;1.60;;
38037;SDS011;23843;51.320;12.340;2023-03-30T08:48:26;2.53;;;1.50;;
38037;SDS011;23843;51.320;12.340;2023-03-30T08:50:53;2.97;;;1.73;;
38037;SDS011;23843;51.320;12.340;2023-03-30T08:53:22;4.23;;;1.97;;
38037;SDS011;23843;51.320;12.340;2023-03-30T08:55:48;3.87;;;1.93;;
38037;SDS011;23843;51.320;12.340;2023-03-30T08:58:19;5.07;;;1.93;;
38037;SDS011;23843;51.320;12.340;2023-03-30T09:00:55;6.37;;;1.97;;
38037;SDS011;23843;51.320;12.340;2023-03-30T09:03:27;3.50;;;1.73;;
38037;SDS011;23843;51.320;12.340;2023-03-30T09:05:59;4.33;;;1.60;;
38037;SDS011;23843;51.320;12.340;2023-03-30T09:08:34;2.60;;;1.80;;
38037;SDS011;23843;51.320;12.340;2023-03-30T09:11:01;3.00;;;1.50;;
38037;SDS011;23843;51.320;12.340;2023-03-30T09:13:30;1.93;;;1.33;;
38037;SDS011;23843;51.320;12.340;2023-03-30T09:15:59;2.53;;;1.73;;
38037;SDS011;23843;51.320;12.340;2023-03-30T09:18:31;3.23;;;1.73;;
38037;SDS011;23843;51.320;12.340;2023-03-30T09:20:59;2.87;;;1.70;;
38037;SDS011;23843;51.320;12.340;2023-03-30T09:23:26;4.30;;;1.57;;
38037;SDS011;23843;51.320;12.340;2023-03-30T09:25:54;2.57;;;1.60;;
38037;SDS011;23843;51.320;12.340;2023-03-30T09:28:26;4.53;;;1.60;;
38037;SDS011;23843;51.320;12.340;2023-03-30T09:31:00;3.07;;;1.57;;
38037;SDS011;23843;51.320;12.340;2023-03-30T09:33:33;3.53;;;2.00;;
38037;SDS011;23843;51.320;12.340;2023-03-30T09:36:08;4.47;;;1.70;;
38037;SDS011;23843;51.320;12.340;2023-03-30T09:38:38;2.93;;;1.60;;
38037;SDS011;23843;51.320;12.340;2023-03-30T09:41:05;2.30;;;1.40;;
38037;SDS011;23843;51.320;12.340;2023-03-30T09:43:41;2.40;;;1.47;;
38037;SDS011;23843;51.320;12.340;2023-03-30T09:46:09;3.67;;;2.13;;
38037;SDS011;23843;51.320;12.340;2023-03-30T09:48:38;5.37;;;2.53;;
38037;SDS011;23843;51.320;12.340;2023-03-30T09:51:12;5.93;;;2.87;;
38037;SDS011;23843;51.320;12.340;2023-03-30T09:53:39;4.47;;;2.03;;
38037;SDS011;23843;51.320;12.340;2023-03-30T09:56:07;6.07;;;2.00;;
38037;SDS011;23843;51.320;12.340;2023-03-30T09:58:33;4.53;;;2.20;;
38037;SDS011;23843;51.320;12.340;2023-03-30T10:01:00;4.23;;;1.90;;
38037;SDS011;23843;51.320;12.340;2023-03-30T10:03:30;4.80;;;2.10;;
38037;SDS011;23843;51.320;12.340;2023-03-30T10:06:02;5.40;;;1.90;;
38037;SDS011;23843;51.320;12.340;2023-03-30T10:08:30;4.30;;;2.00;;
38037;SDS011;23843;51.320;12.340;2023-03-30T10:10:56;5.33;;;1.97;;
38037;SDS011;23843;51.320;12.340;2023-03-30T10:13:25;3.70;;;1.77;;
38037;SDS011;23843;51.320;12.340;2023-03-30T10:15:54;4.20;;;2.00;;
38037;SDS011;23843;51.320;12.340;2023-03-30T10:18:21;5.13;;;1.93;;
38037;SDS011;23843;51.320;12.340;2023-03-30T10:20:51;3.37;;;1.83;;
38037;SDS011;23843;51.320;12.340;2023-03-30T10:23:17;3.60;;;1.80;;
38037;SDS011;23843;51.320;12.340;2023-03-30T10:25:44;5.13;;;1.97;;
38037;SDS011;23843;51.320;12.340;2023-03-30T10:28:14;3.60;;;1.80;;
38037;SDS011;23843;51.320;12.340;2023-03-30T10:30:47;2.93;;;1.80;;
38037;SDS011;23843;51.320;12.340;2023-03-30T10:33:14;3.10;;;1.87;;
38037;SDS011;23843;51.320;12.340;2023-03-30T10:35:40;3.20;;;1.70;;
38037;SDS011;23843;51.320;12.340;2023-03-30T10:38:09;2.50;;;1.60;;
38037;SDS011;23843;51.320;12.340;2023-03-30T10:40:38;3.50;;;1.80;;
38037;SDS011;23843;51.320;12.340;2023-03-30T10:43:05;4.47;;;1.77;;
38037;SDS011;23843;51.320;12.340;2023-03-30T10:45:38;3.10;;;1.50;;
38037;SDS011;23843;51.320;12.340;2023-03-30T10:48:09;2.87;;;1.70;;
38037;SDS011;23843;51.320;12.340;2023-03-30T10:50:46;2.63;;;1.63;;
38037;SDS011;23843;51.320;12.340;2023-03-30T10:53:27;3.43;;;1.73;;
38037;SDS011;23843;51.320;12.340;2023-03-30T10:56:05;3.33;;;1.77;;
38037;SDS011;23843;51.320;12.340;2023-03-30T10:58:48;2.70;;;1.37;;
38037;SDS011;23843;51.320;12.340;2023-03-30T11:01:27;2.80;;;1.50;;
38037;SDS011;23843;51.320;12.340;2023-03-30T11:03:57;3.90;;;2.33;;
38037;SDS011;23843;51.320;12.340;2023-03-30T11:06:27;4.97;;;2.13;;
38037;SDS011;23843;51.320;12.340;2023-03-30T11:08:59;1.63;;;1.07;;
38037;SDS011;23843;51.320;12.340;2023-03-30T11:11:29;2.20;;;1.20;;
38037;SDS011;23843;51.320;12.340;2023-03-30T11:13:58;1.67;;;1.20;;
38037;SDS011;23843;51.320;12.340;2023-03-30T11:16:29;4.10;;;1.40;;
38037;SDS011;23843;51.320;12.340;2023-03-30T11:19:04;2.23;;;1.33;;
38037;SDS011;23843;51.320;12.340;2023-03-30T11:21:38;3.17;;;1.63;;
38037;SDS011;23843;51.320;12.340;2023-03-30T11:24:11;2.33;;;1.50;;
38037;SDS011;23843;51.320;12.340;2023-03-30T11:26:44;3.17;;;1.50;;
38037;SDS011;23843;51.320;12.340;2023-03-30T11:29:19;4.50;;;1.67;;
38037;SDS011;23843;51.320;12.340;2023-03-30T11:31:55;3.30;;;1.50;;
38037;SDS011;23843;51.320;12.340;2023-03-30T11:34:34;2.57;;;1.27;;
38037;SDS011;23843;51.320;12.340;2023-03-30T11:37:11;2.53;;;1.40;;
38037;SDS011;23843;51.320;12.340;2023-03-30T11:39:44;1.47;;;1.30;;
38037;SDS011;23843;51.320;12.340;2023-03-30T11:42:16;1.30;;;1.20;;
38037;SDS011;23843;51.320;12.340;2023-03-30T11:44:47;1.77;;;1.10;;
38037;SDS011;23843;51.320;12.340;2023-03-30T11:47:17;2.83;;;1.63;;
38037;SDS011;23843;51.320;12.340;2023-03-30T11:50:08;2.03;;;1.57;;
38037;SDS011;23843;51.320;12.340;2023-03-30T11:52:42;3.50;;;1.70;;
38037;SDS011;23843;51.320;12.340;2023-03-30T11:55:23;4.13;;;1.97;;
38037;SDS011;23843;51.320;12.340;2023-03-30T12:00:51;2.93;;;2.20;;
38037;SDS011;23843;51.320;12.340;2023-03-30T12:03:28;4.17;;;2.47;;
38037;SDS011;23843;51.320;12.340;2023-03-30T12:06:07;3.20;;;1.90;;
38037;SDS011;23843;51.320;12.340;2023-03-30T12:08:45;2.70;;;1.87;;
38037;SDS011;23843;51.320;12.340;2023-03-30T12:11:22;2.97;;;1.67;;
38037;SDS011;23843;51.320;12.340;2023-03-30T12:13:54;4.63;;;2.00;;
38037;SDS011;23843;51.320;12.340;2023-03-30T12:16:21;3.53;;;2.37;;
38037;SDS011;23843;51.320;12.340;2023-03-30T12:18:55;3.10;;;2.10;;
38037;SDS011;23843;51.320;12.340;2023-03-30T12:21:30;3.20;;;2.10;;
38037;SDS011;23843;51.320;12.340;2023-03-30T12:23:58;5.40;;;2.55;;
38037;SDS011;23843;51.320;12.340;2023-03-30T12:26:35;4.93;;;2.27;;
38037;SDS011;23843;51.320;12.340;2023-03-30T12:29:07;3.33;;;2.10;;
38037;SDS011;23843;51.320;12.340;2023-03-30T12:31:47;5.40;;;2.75;;
38037;SDS011;23843;51.320;12.340;2023-03-30T12:34:15;3.77;;;2.03;;
38037;SDS011;23843;51.320;12.340;2023-03-30T12:36:41;2.80;;;1.92;;
38037;SDS011;23843;51.320;12.340;2023-03-30T12:39:12;2.83;;;1.70;;
38037;SDS011;23843;51.320;12.340;2023-03-30T12:41:45;4.25;;;2.78;;
38037;SDS011;23843;51.320;12.340;2023-03-30T12:44:18;3.33;;;2.00;;
38037;SDS011;23843;51.320;12.340;2023-03-30T12:47:01;3.03;;;1.90;;
38037;SDS011;23843;51.320;12.340;2023-03-30T12:49:49;3.90;;;1.73;;
38037;SDS011;23843;51.320;12.340;2023-03-30T12:52:31;4.00;;;1.90;;
38037;SDS011;23843;51.320;12.340;2023-03-30T12:58:02;2.10;;;1.70;;
38037;SDS011;23843;51.320;12.340;2023-03-30T13:00:50;3.65;;;1.73;;
38037;SDS011;23843;51.320;12.340;2023-03-30T13:03:37;3.20;;;1.50;;
38037;SDS011;23843;51.320;12.340;2023-03-30T13:06:06;4.00;;;1.50;;
38037;SDS011;23843;51.320;12.340;2023-03-30T13:08:40;3.88;;;1.50;;
38037;SDS011;23843;51.320;12.340;2023-03-30T13:11:09;3.47;;;1.65;;
38037;SDS011;23843;51.320;12.340;2023-03-30T13:13:45;2.47;;;1.40;;
38037;SDS011;23843;51.320;12.340;2023-03-30T13:16:14;3.22;;;1.50;;
38037;SDS011;23843;51.320;12.340;2023-03-30T13:19:39;2.67;;;1.30;;
38037;SDS011;23843;51.320;12.340;2023-03-30T13:22:17;2.67;;;1.30;;
38037;SDS011;23843;51.320;12.340;2023-03-30T13:24:51;2.88;;;2.05;;
38037;SDS011;23843;51.320;12.340;2023-03-30T13:27:23;4.35;;;1.40;;
38037;SDS011;23843;51.320;12.340;2023-03-30T13:29:53;2.00;;;1.00;;
38037;SDS011;23843;51.320;12.340;2023-03-30T13:32:19;2.25;;;1.20;;
38037;SDS011;23843;51.320;12.340;2023-03-30T13:35:12;4.20;;;1.30;;
38037;SDS011;23843;51.320;12.340;2023-03-30T13:38:01;1.97;;;1.20;;
38037;SDS011;23843;51.320;12.340;2023-03-30T13:41:06;3.83;;;1.10;;
38037;SDS011;23843;51.320;12.340;2023-03-30T13:43:48;3.42;;;1.40;;
38037;SDS011;23843;51.320;12.340;2023-03-30T13:46:26;2.75;;;1.48;;
38037;SDS011;23843;51.320;12.340;2023-03-30T13:49:00;1.83;;;1.10;;
38037;SDS011;23843;51.320;12.340;2023-03-30T13:51:35;3.50;;;1.10;;
38037;SDS011;23843;51.320;12.340;2023-03-30T13:54:02;1.83;;;1.02;;
38037;SDS011;23843;51.320;12.340;2023-03-30T13:56:32;2.40;;;1.20;;
38037;SDS011;23843;51.320;12.340;2023-03-30T13:59:02;2.78;;;1.30;;
38037;SDS011;23843;51.320;12.340;2023-03-30T14:01:31;4.65;;;1.40;;
38037;SDS011;23843;51.320;12.340;2023-03-30T14:03:58;1.58;;;1.17;;
38037;SDS011;23843;51.320;12.340;2023-03-30T14:06:24;2.43;;;1.50;;
38037;SDS011;23843;51.320;12.340;2023-03-30T14:08:57;3.83;;;1.13;;
38037;SDS011;23843;51.320;12.340;2023-03-30T14:11:35;0.50;;;0.50;;
38037;SDS011;23843;51.320;12.340;2023-03-30T14:14:03;2.07;;;0.90;;
38037;SDS011;23843;51.320;12.340;2023-03-30T14:16:32;1.13;;;0.60;;
38037;SDS011;23843;51.320;12.340;2023-03-30T14:19:04;0.50;;;0.50;;
38037;SDS011;23843;51.320;12.340;2023-03-30T14:21:35;1.67;;;0.40;;
38037;SDS011;23843;51.320;12.340;2023-03-30T14:24:07;0.90;;;0.40;;
38037;SDS011;23843;51.320;12.340;2023-03-30T14:26:38;0.60;;;0.40;;
38037;SDS011;23843;51.320;12.340;2023-03-30T14:29:05;1.00;;;0.50;;
38037;SDS011;23843;51.320;12.340;2023-03-30T14:31:37;0.83;;;0.40;;
38037;SDS011;23843;51.320;12.340;2023-03-30T14:34:19;1.87;;;0.57;;
38037;SDS011;23843;51.320;12.340;2023-03-30T14:36:46;1.00;;;0.70;;
38037;SDS011;23843;51.320;12.340;2023-03-30T14:39:11;0.53;;;0.20;;
38037;SDS011;23843;51.320;12.340;2023-03-30T14:41:45;0.37;;;0.20;;
38037;SDS011;23843;51.320;12.340;2023-03-30T14:44:11;0.20;;;0.20;;
38037;SDS011;23843;51.320;12.340;2023-03-30T14:46:40;0.67;;;0.30;;
38037;SDS011;23843;51.320;12.340;2023-03-30T14:49:07;0.50;;;0.43;;
38037;SDS011;23843;51.320;12.340;2023-03-30T14:51:41;1.53;;;0.80;;
38037;SDS011;23843;51.320;12.340;2023-03-30T14:54:07;1.13;;;0.50;;
38037;SDS011;23843;51.320;12.340;2023-03-30T14:56:39;1.03;;;0.50;;
38037;SDS011;23843;51.320;12.340;2023-03-30T14:59:06;0.60;;;0.40;;
38037;SDS011;23843;51.320;12.340;2023-03-30T15:01:34;0.93;;;0.40;;
38037;SDS011;23843;51.320;12.340;2023-03-30T15:04:04;0.67;;;0.40;;
38037;SDS011;23843;51.320;12.340;2023-03-30T15:06:34;1.80;;;0.70;;
38037;SDS011;23843;51.320;12.340;2023-03-30T15:09:01;0.70;;;0.50;;
38037;SDS011;23843;51.320;12.340;2023-03-30T15:11:30;1.77;;;0.70;;
38037;SDS011;23843;51.320;12.340;2023-03-30T15:14:00;0.60;;;0.50;;
38037;SDS011;23843;51.320;12.340;2023-03-30T15:16:29;0.37;;;0.33;;
38037;SDS011;23843;51.320;12.340;2023-03-30T15:18:58;0.80;;;0.50;;
38037;SDS011;23843;51.320;12.340;2023-03-30T15:21:29;0.90;;;0.63;;
38037;SDS011;23843;51.320;12.340;2023-03-30T15:23:56;1.97;;;0.47;;
38037;SDS011;23843;51.320;12.340;2023-03-30T15:26:22;0.73;;;0.50;;
38037;SDS011;23843;51.320;12.340;2023-03-30T15:28:49;0.30;;;0.30;;
38037;SDS011;23843;51.320;12.340;2023-03-30T15:31:17;0.70;;;0.50;;
38037;SDS011;23843;51.320;12.340;2023-03-30T15:33:44;0.87;;;0.60;;
38037;SDS011;23843;51.320;12.340;2023-03-30T15:36:17;1.10;;;0.60;;
38037;SDS011;23843;51.320;12.340;2023-03-30T15:38:46;0.97;;;0.50;;
38037;SDS011;23843;51.320;12.340;2023-03-30T15:41:13;0.80;;;0.63;;
38037;SDS011;23843;51.320;12.340;2023-03-30T15:43:51;1.40;;;0.70;;
38037;SDS011;23843;51.320;12.340;2023-03-30T15:46:18;1.17;;;0.70;;
38037;SDS011;23843;51.320;12.340;2023-03-30T15:48:44;0.73;;;0.57;;
38037;SDS011;23843;51.320;12.340;2023-03-30T15:51:12;1.03;;;0.60;;
38037;SDS011;23843;51.320;12.340;2023-03-30T15:53:47;1.40;;;0.70;;
38037;SDS011;23843;51.320;12.340;2023-03-30T15:56:16;1.17;;;0.70;;
38037;SDS011;23843;51.320;12.340;2023-03-30T15:58:44;2.03;;;1.10;;
38037;SDS011;23843;51.320;12.340;2023-03-30T16:01:11;1.63;;;1.30;;
38037;SDS011;23843;51.320;12.340;2023-03-30T16:03:37;1.37;;;1.00;;
38037;SDS011;23843;51.320;12.340;2023-03-30T16:06:04;2.43;;;0.93;;
38037;SDS011;23843;51.320;12.340;2023-03-30T16:08:30;1.37;;;0.70;;
38037;SDS011;23843;51.320;12.340;2023-03-30T16:10:57;0.60;;;0.50;;
38037;SDS011;23843;51.320;12.340;2023-03-30T16:13:23;1.10;;;0.50;;
38037;SDS011;23843;51.320;12.340;2023-03-30T16:15:48;0.73;;;0.47;;
38037;SDS011;23843;51.320;12.340;2023-03-30T16:18:15;0.60;;;0.60;;
38037;SDS011;23843;51.320;12.340;2023-03-30T16:20:41;1.63;;;0.50;;
38037;SDS011;23843;51.320;12.340;2023-03-30T16:23:06;1.50;;;0.50;;
38037;SDS011;23843;51.320;12.340;2023-03-30T16:25:32;1.47;;;0.77;;
38037;SDS011;23843;51.320;12.340;2023-03-30T16:27:59;1.03;;;0.50;;
38037;SDS011;23843;51.320;12.340;2023-03-30T16:30:24;0.47;;;0.47;;
38037;SDS011;23843;51.320;12.340;2023-03-30T16:32:52;1.10;;;0.50;;
38037;SDS011;23843;51.320;12.340;2023-03-30T16:35:18;1.40;;;1.00;;
38037;SDS011;23843;51.320;12.340;2023-03-30T16:37:43;1.53;;;0.73;;
38037;SDS011;23843;51.320;12.340;2023-03-30T16:40:13;1.27;;;0.60;;
38037;SDS011;23843;51.320;12.340;2023-03-30T16:42:45;1.07;;;0.53;;
38037;SDS011;23843;51.320;12.340;2023-03-30T16:45:12;1.00;;;0.60;;
38037;SDS011;23843;51.320;12.340;2023-03-30T16:47:38;0.83;;;0.67;;
38037;SDS011;23843;51.320;12.340;2023-03-30T16:50:09;0.93;;;0.57;;
38037;SDS011;23843;51.320;12.340;2023-03-30T16:52:41;0.90;;;0.60;;
38037;SDS011;23843;51.320;12.340;2023-03-30T16:55:07;0.57;;;0.53;;
38037;SDS011;23843;51.320;12.340;2023-03-30T16:57:32;1.40;;;0.60;;
38037;SDS011;23843;51.320;12.340;2023-03-30T16:59:58;0.87;;;0.43;;
38037;SDS011;23843;51.320;12.340;2023-03-30T17:02:25;1.20;;;0.70;;
38037;SDS011;23843;51.320;12.340;2023-03-30T17:04:50;1.07;;;0.60;;
38037;SDS011;23843;51.320;12.340;2023-03-30T17:07:15;0.77;;;0.67;;
38037;SDS011;23843;51.320;12.340;2023-03-30T17:09:41;0.97;;;0.60;;
38037;SDS011;23843;51.320;12.340;2023-03-30T17:12:07;0.77;;;0.50;;
38037;SDS011;23843;51.320;12.340;2023-03-30T17:14:32;1.37;;;0.77;;
38037;SDS011;23843;51.320;12.340;2023-03-30T17:16:58;0.60;;;0.60;;
38037;SDS011;23843;51.320;12.340;2023-03-30T17:19:24;1.10;;;0.80;;
38037;SDS011;23843;51.320;12.340;2023-03-30T17:21:50;1.13;;;0.70;;
38037;SDS011;23843;51.320;12.340;2023-03-30T17:24:15;1.20;;;0.90;;
38037;SDS011;23843;51.320;12.340;2023-03-30T17:26:41;1.23;;;0.83;;
38037;SDS011;23843;51.320;12.340;2023-03-30T17:29:07;1.90;;;1.10;;
38037;SDS011;23843;51.320;12.340;2023-03-30T17:31:33;1.30;;;1.00;;
38037;SDS011;23843;51.320;12.340;2023-03-30T17:33:58;1.50;;;0.80;;
38037;SDS011;23843;51.320;12.340;2023-03-30T17:36:25;1.50;;;1.07;;
38037;SDS011;23843;51.320;12.340;2023-03-30T17:38:51;1.00;;;0.80;;
38037;SDS011;23843;51.320;12.340;2023-03-30T17:41:17;1.40;;;0.80;;
38037;SDS011;23843;51.320;12.340;2023-03-30T17:43:43;1.60;;;0.90;;
38037;SDS011;23843;51.320;12.340;2023-03-30T17:46:10;1.90;;;0.80;;
38037;SDS011;23843;51.320;12.340;2023-03-30T17:48:36;1.80;;;0.90;;
38037;SDS011;23843;51.320;12.340;2023-03-30T17:51:02;1.17;;;0.77;;
38037;SDS011;23843;51.320;12.340;2023-03-30T17:53:28;2.87;;;1.37;;
38037;SDS011;23843;51.320;12.340;2023-03-30T17:55:54;1.77;;;1.47;;
38037;SDS011;23843;51.320;12.340;2023-03-30T17:58:20;1.83;;;1.00;;
38037;SDS011;23843;51.320;12.340;2023-03-30T18:00:48;2.53;;;1.13;;
38037;SDS011;23843;51.320;12.340;2023-03-30T18:03:14;0.70;;;0.60;;
38037;SDS011;23843;51.320;12.340;2023-03-30T18:05:41;1.67;;;0.70;;
38037;SDS011;23843;51.320;12.340;2023-03-30T18:08:14;1.30;;;0.57;;
38037;SDS011;23843;51.320;12.340;2023-03-30T18:10:41;0.77;;;0.50;;
38037;SDS011;23843;51.320;12.340;2023-03-30T18:13:08;1.00;;;0.50;;
38037;SDS011;23843;51.320;12.340;2023-03-30T18:15:33;0.50;;;0.40;;
38037;SDS011;23843;51.320;12.340;2023-03-30T18:17:59;0.87;;;0.50;;
38037;SDS011;23843;51.320;12.340;2023-03-30T18:20:25;0.70;;;0.40;;
38037;SDS011;23843;51.320;12.340;2023-03-30T18:22:53;1.23;;;0.60;;
38037;SDS011;23843;51.320;12.340;2023-03-30T18:25:22;1.13;;;0.60;;
38037;SDS011;23843;51.320;12.340;2023-03-30T18:27:49;1.33;;;0.53;;
38037;SDS011;23843;51.320;12.340;2023-03-30T18:30:22;1.07;;;0.50;;
38037;SDS011;23843;51.320;12.340;2023-03-30T18:32:49;1.00;;;0.90;;
38037;SDS011;23843;51.320;12.340;2023-03-30T18:35:16;1.80;;;0.70;;
38037;SDS011;23843;51.320;12.340;2023-03-30T18:37:42;0.83;;;0.50;;
38037;SDS011;23843;51.320;12.340;2023-03-30T18:40:12;1.73;;;0.70;;
38037;SDS011;23843;51.320;12.340;2023-03-30T18:42:42;0.87;;;0.70;;
38037;SDS011;23843;51.320;12.340;2023-03-30T18:45:10;0.53;;;0.50;;
38037;SDS011;23843;51.320;12.340;2023-03-30T18:47:36;1.53;;;0.60;;
38037;SDS011;23843;51.320;12.340;2023-03-30T18:50:02;1.00;;;0.60;;
38037;SDS011;23843;51.320;12.340;2023-03-30T18:52:34;1.37;;;0.60;;
38037;SDS011;23843;51.320;12.340;2023-03-30T18:54:59;0.67;;;0.43;;
38037;SDS011;23843;51.320;12.340;2023-03-30T18:57:25;0.90;;;0.40;;
38037;SDS011;23843;51.320;12.340;2023-03-30T18:59:52;0.27;;;0.20;;
38037;SDS011;23843;51.320;12.340;2023-03-30T19:02:17;0.50;;;0.47;;
38037;SDS011;23843;51.320;12.340;2023-03-30T19:04:43;0.63;;;0.30;;
38037;SDS011;23843;51.320;12.340;2023-03-30T19:07:08;0.47;;;0.40;;
38037;SDS011;23843;51.320;12.340;2023-03-30T19:09:34;0.30;;;0.30;;
38037;SDS011;23843;51.320;12.340;2023-03-30T19:12:00;0.53;;;0.40;;
38037;SDS011;23843;51.320;12.340;2023-03-30T19:14:27;0.80;;;0.50;;
38037;SDS011;23843;51.320;12.340;2023-03-30T19:16:56;0.73;;;0.60;;
38037;SDS011;23843;51.320;12.340;2023-03-30T19:19:22;0.60;;;0.50;;
38037;SDS011;23843;51.320;12.340;2023-03-30T19:21:47;1.70;;;1.00;;